Time;durP1;ratioP1;P1;durP2;ratioP2;P2;SDS_P1;SDS_P2;PMS_P1;PMS_P2;Temp;Humidity;BMP_temperature;BMP_pressure;BME280_temperature;BME280_humidity;BME280_pressure;Samples;Min_cycle;Max_cycle;Signal;HPM_P1;HPM_P2
2022/09/05 00:01:38;;;;;;;54.35;26.27;;;;;;;17.99;78.73;101776.63;5041232;28;20064;-73
2022/09/05 00:04:14;;;;;;;49.70;23.35;;;;;;;17.98;77.87;101779.56;5030542;28;20465;-73
2022/09/05 00:06:44;;;;;;;40.30;19.08;;;;;;;17.95;76.12;101779.97;5030373;28;20040;-73
2022/09/05 00:09:47;;;;;;;42.63;18.73;;;;;;;17.92;75.72;101772.22;5013153;28;20102;-74
2022/09/05 00:12:13;;;;;;;45.00;20.23;;;;;;;17.89;75.64;101772.66;5047065;28;20026;-73
2022/09/05 00:14:49;;;;;;;48.53;19.98;;;;;;;17.88;75.68;101779.16;5029122;28;20033;-74
2022/09/05 00:17:45;;;;;;;36.97;17.98;;;;;;;17.89;75.66;101776.22;5046744;28;20059;-73
2022/09/05 00:20:28;;;;;;;33.60;16.90;;;;;;;17.90;75.35;101774.31;5046502;28;20480;-74
2022/09/05 00:23:14;;;;;;;32.72;16.33;;;;;;;17.88;74.52;101768.25;5031083;28;20124;-75
2022/09/05 00:25:49;;;;;;;30.20;15.52;;;;;;;17.85;74.23;101764.06;5033353;28;20164;-74
2022/09/05 00:28:29;;;;;;;30.80;14.65;;;;;;;17.84;73.85;101765.09;5047829;28;20043;-73
2022/09/05 00:30:57;;;;;;;28.13;12.98;;;;;;;17.78;73.75;101766.75;5045927;28;20465;-73
2022/09/05 00:33:25;;;;;;;25.20;12.93;;;;;;;17.78;74.25;101765.91;5027214;28;20026;-73
2022/09/05 00:36:04;;;;;;;21.25;12.35;;;;;;;17.76;73.51;101771.53;5020480;28;20052;-73
2022/09/05 00:38:30;;;;;;;25.13;11.57;;;;;;;17.74;73.95;101768.19;5012096;28;20030;-73
2022/09/05 00:40:57;;;;;;;22.48;10.75;;;;;;;17.72;73.72;101766.72;5020902;28;20026;-75
2022/09/05 00:43:24;;;;;;;;;;;;;;;17.71;73.45;101755.00;5033493;28;20033;-73
2022/09/05 00:46:14;;;;;;;21.65;11.23;;;;;;;17.68;73.01;101763.56;5041313;28;19921;-74
2022/09/05 00:49:12;;;;;;;21.33;10.68;;;;;;;17.65;73.32;101753.09;4996470;28;20469;-73
2022/09/05 00:51:43;;;;;;;20.35;9.93;;;;;;;17.66;73.07;101757.50;5006233;28;20049;-74
2022/09/05 00:54:23;;;;;;;23.85;10.43;;;;;;;17.63;73.72;101754.34;5019788;28;20048;-74
2022/09/05 00:56:57;;;;;;;19.15;10.07;;;;;;;17.56;73.66;101757.03;5035459;28;20033;-72
2022/09/05 00:59:23;;;;;;;24.00;10.40;;;;;;;17.52;73.57;101750.34;5041751;28;20056;-72
2022/09/05 01:02:10;;;;;;;32.00;10.07;;;;;;;17.46;73.63;101754.75;5039492;28;20021;-73
2022/09/05 01:04:44;;;;;;;17.42;9.20;;;;;;;17.42;73.90;101755.34;5041854;28;20071;-74
2022/09/05 01:07:25;;;;;;;27.25;9.57;;;;;;;17.38;73.58;101754.94;5038694;28;20096;-75
2022/09/05 01:09:55;;;;;;;24.02;10.05;;;;;;;17.37;74.19;101752.41;5032122;28;20481;-74
2022/09/05 01:12:39;;;;;;;19.17;9.75;;;;;;;17.33;74.00;101747.38;5043293;28;20030;-74
2022/09/05 01:15:31;;;;;;;25.75;10.68;;;;;;;17.30;74.04;101742.34;5026948;28;20128;-74
2022/09/05 01:17:56;;;;;;;19.55;9.48;;;;;;;17.28;74.29;101747.16;5031314;28;20033;-75
2022/09/05 01:20:24;;;;;;;24.50;10.90;;;;;;;17.27;74.44;101750.91;5032648;28;20121;-73
2022/09/05 01:22:49;;;;;;;;;;;;;;;17.29;74.60;101753.41;5048465;28;20021;-73
2022/09/05 01:25:24;;;;;;;20.43;10.73;;;;;;;17.25;74.49;101739.41;5044848;28;19913;-74
2022/09/05 01:27:52;;;;;;;23.27;10.57;;;;;;;17.24;74.75;101754.03;5026704;28;20303;-74
2022/09/05 01:30:24;;;;;;;17.92;10.38;;;;;;;17.23;75.25;101746.09;5027169;28;20017;-74
2022/09/05 01:32:54;;;;;;;23.75;11.48;;;;;;;17.20;75.31;101741.88;5025692;28;20091;-74
2022/09/05 01:35:50;;;;;;;28.88;11.45;;;;;;;17.14;75.13;101740.00;5044275;28;20026;-74
2022/09/05 01:38:31;;;;;;;26.92;11.93;;;;;;;17.07;76.47;101744.56;5035383;28;20154;-73
2022/09/05 01:41:20;;;;;;;25.98;11.60;;;;;;;17.02;76.28;101750.59;5026056;28;20033;-73
2022/09/05 01:44:27;;;;;;;33.45;12.82;;;;;;;17.01;76.18;101743.50;5025347;28;20029;-73
2022/09/05 01:47:08;;;;;;;;;;;;;;;17.00;76.25;101740.97;4937722;29;20106;-73
2022/09/05 01:49:52;;;;;;;23.60;12.20;;;;;;;17.00;75.99;101740.97;4951632;29;19902;-73
2022/09/05 01:52:24;;;;;;;25.42;14.02;;;;;;;17.00;76.10;101740.97;5028475;28;20069;-74
2022/09/05 01:55:09;;;;;;;26.85;14.88;;;;;;;17.01;75.99;101748.06;5015099;28;20057;-74
2022/09/05 01:58:04;;;;;;;37.45;15.35;;;;;;;17.03;76.16;101746.00;5037031;28;20056;-74
2022/09/05 02:00:38;;;;;;;32.22;15.35;;;;;;;17.04;75.67;101747.69;5047957;28;20048;-74
2022/09/05 02:03:12;;;;;;;32.17;14.10;;;;;;;17.08;75.85;101748.94;5020253;28;20038;-73
2022/09/05 02:08:16;;;;;;;32.53;14.40;;;;;;;17.07;75.26;101747.28;4956627;23;20049;-76
2022/09/05 02:10:47;;;;;;;32.20;12.57;;;;;;;17.09;75.54;101740.59;5032031;28;20040;-77
2022/09/05 02:13:29;;;;;;;30.65;13.43;;;;;;;17.08;75.96;101738.06;5031948;28;20037;-77
2022/09/05 02:16:14;;;;;;;21.83;12.00;;;;;;;17.07;75.85;101744.56;5016166;28;20041;-77
2022/09/05 02:19:02;;;;;;;28.42;13.23;;;;;;;17.08;75.88;101740.78;5051272;28;20035;-77
2022/09/05 02:21:27;;;;;;;26.63;13.38;;;;;;;17.08;76.06;101738.06;5046347;28;20033;-77
2022/09/05 02:24:11;;;;;;;31.25;13.77;;;;;;;17.07;76.00;101742.69;5036710;28;20028;-78
2022/09/05 02:26:55;;;;;;;23.10;12.15;;;;;;;17.06;76.08;101737.44;5051098;28;20029;-78
2022/09/05 02:29:27;;;;;;;31.17;13.20;;;;;;;17.08;76.20;101740.78;5050894;28;20027;-78
2022/09/05 02:32:12;;;;;;;30.02;11.95;;;;;;;17.07;75.94;101744.56;5013705;28;20171;-78
2022/09/05 02:35:16;;;;;;;22.52;11.57;;;;;;;17.06;75.96;101745.59;5032799;28;20029;-78
2022/09/05 02:37:55;;;;;;;23.25;11.98;;;;;;;17.01;75.82;101743.50;4964488;28;20049;-78
2022/09/05 02:40:28;;;;;;;24.83;11.38;;;;;;;17.02;76.33;101755.22;4951447;28;20035;-77
2022/09/05 02:43:18;;;;;;;24.73;11.20;;;;;;;17.01;76.16;101746.22;5000603;28;20099;-77
2022/09/05 02:46:05;;;;;;;25.95;10.80;;;;;;;17.03;75.53;101746.84;5049738;28;20052;-78
2022/09/05 02:48:50;;;;;;;27.55;11.38;;;;;;;17.02;75.44;101744.34;5047243;28;20368;-78
2022/09/05 02:51:33;;;;;;;24.27;10.25;;;;;;;17.00;75.33;101740.97;5031797;28;20025;-78
2022/09/05 02:54:10;;;;;;;22.05;10.07;;;;;;;16.95;75.44;101746.19;5001593;28;20432;-79
2022/09/05 02:56:38;;;;;;;23.90;10.82;;;;;;;16.94;75.52;101744.50;5009882;28;20033;-78
2022/09/05 02:59:12;;;;;;;26.15;10.20;;;;;;;16.93;75.50;101751.84;5057521;28;20085;-77
2022/09/05 03:01:53;;;;;;;18.92;10.60;;;;;;;16.90;75.72;101744.06;5033497;28;20477;-79
2022/09/05 03:04:36;;;;;;;31.15;11.88;;;;;;;16.87;75.52;101745.28;5038762;28;20036;-79
2022/09/05 03:07:10;;;;;;;21.60;11.07;;;;;;;16.90;75.73;101744.06;5021736;28;20037;-79
2022/09/05 03:10:04;;;;;;;26.77;11.88;;;;;;;16.92;75.41;101741.97;5036883;28;20029;-79
2022/09/05 03:12:53;;;;;;;26.50;11.63;;;;;;;16.92;75.54;101743.88;5054819;28;20391;-79
2022/09/05 03:15:54;;;;;;;43.45;12.38;;;;;;;16.94;75.46;101745.34;5024094;28;20083;-77
2022/09/05 03:18:41;;;;;;;28.85;12.23;;;;;;;16.93;75.46;101745.53;5038222;28;20084;-79
2022/09/05 03:21:13;;;;;;;65.72;12.70;;;;;;;16.91;75.73;101744.91;5037572;28;20445;-80
2022/09/05 03:24:00;;;;;;;67.50;14.07;;;;;;;16.89;75.54;101745.09;5042860;28;20048;-80
2022/09/05 03:26:51;;;;;;;69.18;15.20;;;;;;;16.80;76.02;101746.31;5037028;28;20057;-79
2022/09/05 03:29:38;;;;;;;37.40;12.63;;;;;;;16.79;76.20;101744.63;5037270;28;20036;-79
2022/09/05 03:32:37;;;;;;;50.80;12.73;;;;;;;16.77;76.46;101741.22;5057284;28;20039;-79
2022/09/05 03:35:28;;;;;;;52.95;12.98;;;;;;;16.74;77.02;101747.91;5038567;28;20119;-79
2022/09/05 03:38:18;;;;;;;52.72;12.30;;;;;;;16.75;77.02;101738.72;5039276;28;20745;-79
2022/09/05 03:41:16;;;;;;;44.05;13.73;;;;;;;16.77;76.84;101736.69;5036720;28;20127;-79
2022/09/05 03:44:12;;;;;;;45.58;14.30;;;;;;;16.79;76.59;101731.88;5036047;28;20037;-79
2022/09/05 03:47:08;;;;;;;38.05;12.18;;;;;;;16.81;76.56;101737.94;5035954;28;20152;-78
2022/09/05 03:49:55;;;;;;;55.00;15.63;;;;;;;16.75;76.65;101732.47;5034845;28;20413;-78
2022/09/05 03:52:48;;;;;;;50.92;14.55;;;;;;;16.73;76.78;101738.09;5037549;28;20492;-79
2022/09/05 03:55:26;;;;;;;41.25;15.00;;;;;;;16.76;76.80;101731.41;5016621;28;20445;-79
2022/09/05 03:58:01;;;;;;;45.13;14.05;;;;;;;16.78;76.78;101732.91;5027152;28;20128;-78
2022/09/05 04:00:35;;;;;;;35.97;14.48;;;;;;;16.77;76.76;101730.38;5054231;28;20040;-78
2022/09/05 04:03:14;;;;;;;36.05;15.88;;;;;;;16.70;77.01;101737.66;5053961;28;20499;-79
2022/09/05 04:05:44;;;;;;;48.15;16.23;;;;;;;16.67;77.25;101726.16;5035963;28;20040;-79
2022/09/05 04:08:35;;;;;;;45.97;15.90;;;;;;;16.65;77.32;101727.38;5035986;28;20071;-79
2022/09/05 04:11:08;;;;;;;46.65;15.90;;;;;;;16.64;77.56;101731.13;5036045;28;20041;-79
2022/09/05 04:13:44;;;;;;;68.05;18.02;;;;;;;16.59;77.75;101729.03;5019733;28;20491;-79
2022/09/05 04:16:17;;;;;;;39.67;15.10;;;;;;;16.56;77.87;101729.44;5030065;28;20112;-79
2022/09/05 04:18:47;;;;;;;42.25;15.82;;;;;;;16.53;78.33;101729.81;5037583;28;20035;-79
2022/09/05 04:21:14;;;;;;;38.83;15.98;;;;;;;16.51;78.55;101721.03;5037702;28;20033;-79
2022/09/05 04:24:15;;;;;;;47.70;16.20;;;;;;;16.51;78.50;101726.47;5036189;28;20029;-79
2022/09/05 04:26:53;;;;;;;46.70;17.58;;;;;;;16.50;78.88;101723.94;5047706;28;20041;-79
2022/09/05 04:29:43;;;;;;;35.08;17.70;;;;;;;16.51;78.75;101725.63;5053903;28;20029;-79
2022/09/05 04:32:34;;;;;;;38.35;17.90;;;;;;;16.53;78.58;101726.25;5054211;28;20033;-79
2022/09/05 04:35:18;;;;;;;46.65;17.40;;;;;;;16.55;78.56;101721.47;5026109;28;20041;-78
2022/09/05 04:38:04;;;;;;;34.50;17.35;;;;;;;16.54;78.76;101726.06;5036994;28;20029;-77
2022/09/05 04:40:42;;;;;;;59.40;18.70;;;;;;;16.56;78.89;101734.00;5033399;28;20064;-79
2022/09/05 04:43:17;;;;;;;37.75;17.08;;;;;;;16.57;78.53;101738.41;5055000;28;20283;-78
2022/09/05 04:45:47;;;;;;;40.65;18.70;;;;;;;16.57;78.05;101731.09;5049408;28;20025;-78
2022/09/05 04:48:17;;;;;;;42.03;18.45;;;;;;;16.58;78.18;101738.19;5035355;28;20045;-78
2022/09/05 04:51:04;;;;;;;41.65;18.25;;;;;;;16.56;78.24;101736.72;5055074;28;20027;-78
2022/09/05 04:53:36;;;;;;;44.28;17.80;;;;;;;16.57;78.38;101738.41;5038603;28;20032;-77
2022/09/05 04:56:08;;;;;;;50.40;18.50;;;;;;;16.56;78.53;101736.72;5053928;28;20494;-78
2022/09/05 04:58:36;;;;;;;62.53;20.20;;;;;;;16.54;78.60;101736.94;5036352;28;20044;-78
2022/09/05 05:01:07;;;;;;;49.00;18.23;;;;;;;16.55;78.29;101737.78;5038203;28;20079;-77
2022/09/05 05:03:33;;;;;;;49.50;21.63;;;;;;;16.52;78.37;101744.44;5037100;28;20034;-78
2022/09/05 05:06:01;;;;;;;53.97;20.50;;;;;;;16.54;78.32;101738.81;5055220;28;20086;-77
2022/09/05 05:08:31;;;;;;;53.05;19.83;;;;;;;16.58;78.50;101748.25;5052910;28;20132;-78
2022/09/05 05:11:07;;;;;;;55.38;20.77;;;;;;;16.61;78.22;101742.41;5005085;28;20037;-78
2022/09/05 05:13:39;;;;;;;51.07;21.23;;;;;;;16.65;78.09;101738.25;5032540;28;20091;-78
2022/09/05 05:16:16;;;;;;;52.83;20.42;;;;;;;16.73;77.82;101751.69;5036392;28;20037;-78
2022/09/05 05:18:54;;;;;;;45.10;21.80;;;;;;;16.74;77.51;101750.63;5033335;28;20089;-78
2022/09/05 05:21:25;;;;;;;43.70;20.33;;;;;;;16.71;77.58;101759.19;5015815;28;20029;-78
2022/09/05 05:23:59;;;;;;;43.20;20.88;;;;;;;16.74;77.68;101752.50;5035469;28;20485;-78
2022/09/05 05:26:43;;;;;;;48.47;19.90;;;;;;;16.84;77.52;101756.56;5031817;28;20033;-78
2022/09/05 05:29:11;;;;;;;43.58;19.38;;;;;;;16.90;77.31;101754.94;5033050;28;20044;-77
2022/09/05 05:31:40;;;;;;;42.70;19.88;;;;;;;17.04;77.17;101750.41;5047995;28;20108;-78
2022/09/05 05:34:15;;;;;;;46.22;20.30;;;;;;;17.17;76.85;101746.88;5032555;28;20029;-78
2022/09/05 05:36:49;;;;;;;46.50;19.63;;;;;;;17.68;77.41;101749.13;5033748;28;20041;-78
2022/09/05 05:39:28;;;;;;;66.05;20.90;;;;;;;18.24;75.08;101750.66;5036010;28;20399;-79
2022/09/05 05:41:57;;;;;;;46.25;20.40;;;;;;;18.82;72.76;101750.78;5033577;28;20098;-79
2022/09/05 05:44:25;;;;;;;40.35;19.13;;;;;;;19.18;69.40;101742.03;5034637;28;20385;-78
2022/09/05 05:47:02;;;;;;;41.42;19.63;;;;;;;19.80;67.77;101742.34;5045901;28;20439;-79
2022/09/05 05:49:41;;;;;;;42.28;18.95;;;;;;;20.47;64.34;101741.75;5037126;28;20029;-78
2022/09/05 05:52:21;;;;;;;37.58;18.08;;;;;;;20.64;62.36;101742.00;5039410;28;20032;-79
2022/09/05 05:54:56;;;;;;;47.90;19.58;;;;;;;20.90;61.86;101749.09;5053490;28;20025;-78
2022/09/05 05:57:35;;;;;;;52.95;18.38;;;;;;;21.17;60.35;101746.84;5035372;28;20029;-78
2022/09/05 06:00:32;;;;;;;42.00;18.90;;;;;;;21.47;60.26;101755.94;5031894;28;20116;-78
2022/09/05 06:03:28;;;;;;;42.45;18.20;;;;;;;21.54;58.03;101753.13;5052336;28;20505;-78
2022/09/05 06:06:35;;;;;;;39.87;18.70;;;;;;;21.36;59.26;101762.19;5055365;28;20029;-78
2022/09/05 06:09:19;;;;;;;41.97;18.42;;;;;;;21.90;57.05;101763.09;5025322;28;20143;-78
2022/09/05 06:12:21;;;;;;;38.05;17.70;;;;;;;21.74;57.14;101762.94;5036896;28;20029;-80
2022/09/05 06:15:08;;;;;;;50.00;18.75;;;;;;;21.36;58.67;101761.38;5019466;28;20025;-77
2022/09/05 06:17:52;;;;;;;;;;;;;;;20.79;60.46;101762.47;5054222;28;20060;-78
2022/09/05 06:20:28;;;;;;;42.78;17.80;;;;;;;20.41;62.01;101756.34;5037863;28;19935;-78
2022/09/05 06:23:05;;;;;;;48.60;18.00;;;;;;;20.19;62.48;101762.19;5054487;28;20541;-78
2022/09/05 06:25:43;;;;;;;;;;;;;;;20.06;63.18;101768.59;5039798;28;20033;-79
2022/09/05 06:28:31;;;;;;;46.53;17.73;;;;;;;19.90;63.89;101775.44;5054991;28;19919;-78
2022/09/05 06:31:36;;;;;;;45.03;17.65;;;;;;;19.84;64.45;101776.34;5046803;28;20032;-78
2022/09/05 06:34:18;;;;;;;43.30;17.92;;;;;;;19.74;64.87;101775.97;5022300;28;20392;-78
2022/09/05 06:36:59;;;;;;;36.92;17.17;;;;;;;19.81;65.05;101771.31;5053422;28;20024;-77
2022/09/05 06:39:33;;;;;;;39.40;16.60;;;;;;;20.03;64.83;101770.94;5030801;28;20397;-78
2022/09/05 06:42:18;;;;;;;40.00;16.42;;;;;;;20.32;63.97;101783.09;5033155;28;20017;-76
2022/09/05 06:45:09;;;;;;;35.50;16.58;;;;;;;20.58;62.62;101782.88;5032106;28;20029;-78
2022/09/05 06:47:36;;;;;;;39.95;15.90;;;;;;;21.11;61.65;101780.63;5051532;28;20060;-76
2022/09/05 06:50:11;;;;;;;33.83;14.63;;;;;;;21.77;58.42;101785.22;5033943;28;20052;-76
2022/09/05 06:52:51;;;;;;;36.45;14.68;;;;;;;22.54;57.76;101793.50;5051012;28;20071;-78
2022/09/05 06:55:35;;;;;;;34.83;13.95;;;;;;;23.04;55.75;101792.16;5050619;28;20025;-77
2022/09/05 06:59:02;;;;;;;34.88;13.07;;;;;;;24.08;53.37;101793.88;5047579;28;20451;-78
2022/09/05 07:01:30;;;;;;;36.60;13.13;;;;;;;24.39;50.71;101805.38;4990345;28;20033;-77
2022/09/05 07:04:08;;;;;;;42.75;13.10;;;;;;;25.28;49.36;101805.31;4975615;28;20034;-78
2022/09/05 07:07:07;;;;;;;27.58;11.25;;;;;;;25.44;47.04;101800.81;5020981;28;20064;-76
2022/09/05 07:09:54;;;;;;;32.63;10.27;;;;;;;25.46;47.04;101798.63;5036078;28;20385;-77
2022/09/05 07:12:26;;;;;;;24.10;10.18;;;;;;;25.61;46.53;101801.53;5013678;28;20025;-78
2022/09/05 07:15:22;;;;;;;24.60;10.05;;;;;;;25.72;46.47;101802.47;5032701;28;20090;-77
2022/09/05 07:18:12;;;;;;;18.83;9.15;;;;;;;25.29;47.75;101815.22;5032093;28;20053;-77
2022/09/05 07:20:49;;;;;;;29.55;9.70;;;;;;;24.60;49.27;101820.31;5014962;28;20444;-78
2022/09/05 07:24:01;;;;;;;34.50;13.38;;;;;;;24.13;50.71;101817.88;5020756;28;20423;-78
2022/09/05 07:26:28;;;;;;;23.20;8.85;;;;;;;23.70;51.22;101819.25;5013796;28;20370;-76
2022/09/05 07:28:59;;;;;;;26.88;9.15;;;;;;;23.53;52.25;101819.22;5014296;28;20111;-77
2022/09/05 07:31:26;;;;;;;25.88;8.95;;;;;;;23.25;53.82;101815.38;5032317;28;20290;-77
2022/09/05 07:34:06;;;;;;;38.58;10.25;;;;;;;23.07;54.30;101815.56;5013862;28;20401;-76
2022/09/05 07:36:41;;;;;;;41.65;9.30;;;;;;;22.99;54.96;101806.59;5013191;28;20097;-76
2022/09/05 07:39:09;;;;;;;28.98;8.52;;;;;;;22.91;55.08;101801.47;5013736;28;20034;-79
2022/09/05 07:41:38;;;;;;;19.88;7.72;;;;;;;22.87;55.77;101799.44;5024153;28;20025;-78
2022/09/05 07:44:09;;;;;;;28.40;9.13;;;;;;;23.19;55.66;101808.09;5037140;28;20021;-77
2022/09/05 07:46:37;;;;;;;26.60;9.82;;;;;;;23.58;54.96;101805.59;5016773;28;20033;-75
2022/09/05 07:49:13;;;;;;;26.80;8.85;;;;;;;24.15;52.42;101807.47;5029855;28;20030;-76
2022/09/05 07:51:51;;;;;;;36.58;8.75;;;;;;;24.84;50.09;101812.69;5033568;28;20083;-78
2022/09/05 07:54:23;;;;;;;23.90;8.25;;;;;;;25.19;48.78;101815.91;5050050;28;20108;-76
2022/09/05 07:56:58;;;;;;;24.35;7.78;;;;;;;25.19;48.31;101818.69;5036437;28;20541;-77
2022/09/05 07:59:27;;;;;;;16.65;7.43;;;;;;;25.16;48.25;101821.94;5036359;28;20037;-78
2022/09/05 08:01:54;;;;;;;23.85;6.82;;;;;;;25.71;46.55;101827.56;5041523;28;20112;-77
2022/09/05 08:04:23;;;;;;;17.38;6.75;;;;;;;26.28;45.87;101827.84;5016598;28;20101;-76
2022/09/05 08:06:51;;;;;;;25.75;6.53;;;;;;;26.58;43.97;101825.59;5016328;28;20041;-79
2022/09/05 08:09:24;;;;;;;20.92;6.80;;;;;;;26.95;43.46;101830.25;5036133;28;20070;-79
2022/09/05 08:11:52;;;;;;;18.60;6.03;;;;;;;26.73;42.32;101833.16;5032159;28;20009;-78
2022/09/05 08:14:41;;;;;;;17.50;6.25;;;;;;;26.34;43.29;101830.66;5034125;28;20025;-77
2022/09/05 08:17:11;;;;;;;20.92;5.60;;;;;;;25.03;45.09;101827.81;5035704;28;20029;-79
2022/09/05 08:20:06;;;;;;;20.73;5.90;;;;;;;24.74;47.03;101830.72;5054138;28;20492;-79
2022/09/05 08:22:43;;;;;;;27.10;5.88;;;;;;;24.29;47.72;101830.81;5036876;28;20234;-79
2022/09/05 08:25:17;;;;;;;15.82;6.18;;;;;;;23.77;49.35;101839.22;5038158;28;20049;-81
2022/09/05 08:28:05;;;;;;;21.15;5.80;;;;;;;23.60;49.79;101825.41;5055142;28;20029;-78
2022/09/05 08:30:53;;;;;;;14.73;5.72;;;;;;;23.58;50.45;101827.56;4998794;28;20036;-79
2022/09/05 08:33:25;;;;;;;17.27;5.82;;;;;;;24.54;48.79;101830.44;5056600;28;20128;-79
2022/09/05 08:35:58;;;;;;;22.45;5.28;;;;;;;25.86;45.28;101830.50;5056999;28;20376;-79
2022/09/05 08:38:24;;;;;;;15.70;4.40;;;;;;;27.30;42.93;101835.97;5037340;28;20027;-79
2022/09/05 08:41:20;;;;;;;21.63;5.03;;;;;;;27.89;40.60;101834.78;5054873;28;20353;-79
2022/09/05 08:44:01;;;;;;;11.33;4.33;;;;;;;29.31;38.06;101829.34;5054227;28;20110;-79
2022/09/05 08:46:48;;;;;;;11.32;4.78;;;;;;;30.11;35.83;101833.84;5036002;28;20275;-81
2022/09/05 08:49:35;;;;;;;18.27;4.75;;;;;;;29.93;35.22;101833.41;5054436;28;20052;-79
2022/09/05 08:52:27;;;;;;;14.95;4.18;;;;;;;29.50;34.57;101819.25;5055709;28;20392;-79
2022/09/05 08:55:17;;;;;;;12.70;4.40;;;;;;;29.74;34.84;101813.84;5036732;28;20036;-80
2022/09/05 08:57:45;;;;;;;16.80;4.20;;;;;;;29.72;33.80;101818.03;5054613;28;20032;-80
2022/09/05 09:00:14;;;;;;;8.70;4.18;;;;;;;28.76;34.92;101820.91;5054791;28;20366;-80
2022/09/05 09:02:39;;;;;;;15.27;4.35;;;;;;;28.16;36.49;101823.44;5034747;28;20025;-78
2022/09/05 09:05:22;;;;;;;21.10;3.97;;;;;;;27.69;37.33;101815.34;5053228;28;20052;-80
2022/09/05 09:07:53;;;;;;;14.15;3.85;;;;;;;27.57;37.55;101818.38;5035148;28;20044;-80
2022/09/05 09:10:30;;;;;;;16.02;4.10;;;;;;;27.33;38.27;101806.94;5053540;28;20065;-79
2022/09/05 09:13:07;;;;;;;15.07;3.97;;;;;;;27.43;37.97;101814.44;5053854;28;20032;-78
2022/09/05 09:15:53;;;;;;;13.88;3.88;;;;;;;27.35;38.27;101819.38;5053096;28;20308;-79
2022/09/05 09:18:20;;;;;;;11.55;3.75;;;;;;;27.82;37.93;101822.31;5018783;28;20044;-79
2022/09/05 09:21:36;;;;;;;18.77;4.45;;;;;;;28.50;36.53;101816.53;5035112;28;20024;-80
2022/09/05 09:24:39;;;;;;;18.15;3.67;;;;;;;28.73;35.28;101817.88;5053259;28;20079;-80
2022/09/05 09:27:10;;;;;;;11.48;3.85;;;;;;;28.67;36.50;101811.50;4956173;28;20094;-78
2022/09/05 09:29:39;;;;;;;19.35;5.30;;;;;;;29.13;35.60;101818.91;5041225;28;20040;-80
2022/09/05 09:32:09;;;;;;;18.75;4.10;;;;;;;28.45;36.59;101809.06;5052953;28;20517;-78
2022/09/05 09:35:23;;;;;;;10.75;3.92;;;;;;;27.89;36.96;101806.28;5053198;28;20024;-80
2022/09/05 09:38:09;;;;;;;14.05;4.18;;;;;;;27.83;37.38;101804.59;5036161;28;20499;-81
2022/09/05 09:41:02;;;;;;;15.70;4.63;;;;;;;27.53;38.31;101806.19;5035262;28;20117;-80
2022/09/05 09:43:47;;;;;;;12.40;3.75;;;;;;;28.31;37.00;101802.41;5053078;28;20108;-80
2022/09/05 09:46:43;;;;;;;21.23;4.05;;;;;;;28.94;36.28;101800.09;5053081;28;20025;-81
2022/09/05 09:49:11;;;;;;;;;;;;;;;29.35;35.90;101802.69;5053271;28;20072;-80
2022/09/05 09:51:51;;;;;;;13.82;4.15;;;;;;;29.71;34.44;101797.78;5053200;28;19948;-80
2022/09/05 09:54:45;;;;;;;15.52;4.43;;;;;;;29.05;35.56;101792.59;5034668;28;20047;-80
2022/09/05 09:57:43;;;;;;;22.75;4.55;;;;;;;28.66;36.09;101794.06;5052828;28;20025;-79
2022/09/05 10:00:21;;;;;;;14.63;4.32;;;;;;;27.78;37.28;101786.88;5052205;28;20053;-80
2022/09/05 10:03:05;;;;;;;10.63;3.50;;;;;;;27.50;38.06;101781.84;5052492;28;20405;-80
2022/09/05 10:05:58;;;;;;;8.98;3.90;;;;;;;27.43;38.53;101778.50;5052297;28;20043;-79
2022/09/05 10:08:54;;;;;;;10.65;3.67;;;;;;;27.71;38.31;101769.72;5034355;28;20556;-80
2022/09/05 10:11:38;;;;;;;10.53;3.70;;;;;;;27.18;38.76;101763.53;5052347;28;20033;-80
2022/09/05 10:14:42;;;;;;;13.88;4.00;;;;;;;27.02;39.41;101762.59;5053695;28;20029;-81
2022/09/05 10:17:20;;;;;;;12.82;3.67;;;;;;;27.15;40.75;101764.03;5052617;28;20059;-81
2022/09/05 10:20:01;;;;;;;10.80;4.20;;;;;;;27.39;40.34;101766.34;5052187;28;20029;-79
2022/09/05 10:22:49;;;;;;;10.48;3.38;;;;;;;27.58;39.90;101761.94;5034267;28;20048;-80
2022/09/05 10:25:39;;;;;;;7.93;4.10;;;;;;;27.63;38.38;101759.19;5051969;28;20465;-79
2022/09/05 10:28:23;;;;;;;7.57;4.00;;;;;;;27.72;38.88;101754.75;5037569;28;20052;-80
2022/09/05 10:31:01;;;;;;;9.32;3.95;;;;;;;27.61;37.83;101766.09;5051848;28;20033;-79
2022/09/05 10:33:35;;;;;;;9.20;4.00;;;;;;;27.49;38.79;101753.38;5034153;28;20025;-80
2022/09/05 10:36:17;;;;;;;13.35;3.53;;;;;;;27.66;38.75;101746.75;5033882;28;20491;-79
2022/09/05 10:38:45;;;;;;;7.60;3.30;;;;;;;27.36;37.77;101751.97;5052077;28;20584;-79
2022/09/05 10:41:14;;;;;;;9.82;3.67;;;;;;;27.46;38.15;101758.59;5033885;28;20533;-79
2022/09/05 10:44:00;;;;;;;7.35;3.42;;;;;;;27.34;38.19;101756.94;5052205;28;20358;-80
2022/09/05 10:46:26;;;;;;;;;;;;;;;27.61;38.00;101749.50;5035156;28;20030;-78
2022/09/05 10:48:53;;;;;;;8.07;3.50;;;;;;;27.89;38.40;101756.50;5051912;28;20307;-81
2022/09/05 10:51:28;;;;;;;11.15;3.90;;;;;;;27.81;37.17;101766.16;5051823;28;20036;-80
2022/09/05 10:54:27;;;;;;;9.77;3.95;;;;;;;27.63;37.43;101764.72;5018471;28;20029;-78
2022/09/05 10:57:04;;;;;;;10.38;3.65;;;;;;;27.70;37.86;101764.44;5052397;28;20108;-79
2022/09/05 10:59:57;;;;;;;11.85;3.63;;;;;;;27.75;38.06;101762.53;5053374;28;20033;-79
2022/09/05 11:02:25;;;;;;;14.35;4.70;;;;;;;28.02;38.05;101767.00;5052894;28;20041;-79
2022/09/05 11:05:23;;;;;;;16.52;4.20;;;;;;;28.19;37.14;101766.69;5035789;28;20056;-79
2022/09/05 11:07:58;;;;;;;24.73;4.40;;;;;;;28.41;37.09;101758.94;5056635;28;20135;-80
2022/09/05 11:10:48;;;;;;;15.70;4.70;;;;;;;29.05;36.05;101771.25;5056483;28;20060;-79
2022/09/05 11:13:35;;;;;;;7.38;3.28;;;;;;;29.57;35.21;101774.56;4998136;28;20432;-81
2022/09/05 11:16:00;;;;;;;;;;;;;;;29.94;33.63;101765.72;5052472;28;20032;-78
2022/09/05 11:18:45;;;;;;;15.37;5.20;;;;;;;29.73;33.80;101758.69;5053571;28;20279;-79
2022/09/05 11:21:48;;;;;;;20.10;4.10;;;;;;;28.88;35.52;101762.41;5038549;28;20066;-78
2022/09/05 11:24:23;;;;;;;12.73;4.15;;;;;;;29.13;35.62;101753.19;5019315;28;20045;-81
2022/09/05 11:26:56;;;;;;;10.07;3.97;;;;;;;29.14;35.67;101754.00;5058432;28;20036;-80
2022/09/05 11:29:35;;;;;;;11.23;3.92;;;;;;;29.57;35.14;101755.16;5039841;28;20025;-80
2022/09/05 11:32:23;;;;;;;11.23;3.58;;;;;;;29.93;34.58;101755.72;5039748;28;20250;-82
2022/09/05 11:35:16;;;;;;;21.42;3.90;;;;;;;29.85;33.79;101759.09;5055947;28;20111;-79
2022/09/05 11:38:09;;;;;;;12.45;3.60;;;;;;;29.37;34.30;101758.88;5038855;28;20132;-82
2022/09/05 11:40:53;;;;;;;11.30;3.95;;;;;;;29.45;35.21;101761.03;5057002;28;20028;-80
2022/09/05 11:43:27;;;;;;;13.15;3.53;;;;;;;29.32;34.41;101756.13;5057776;28;20040;-80
2022/09/05 11:45:58;;;;;;;10.95;3.60;;;;;;;29.41;34.76;101765.53;5057076;28;20051;-80
2022/09/05 11:48:30;;;;;;;7.38;3.30;;;;;;;29.44;33.84;101761.34;5038034;28;20052;-81
2022/09/05 11:51:17;;;;;;;9.65;3.30;;;;;;;29.64;33.86;101752.03;5055240;28;20040;-79
2022/09/05 11:53:48;;;;;;;10.18;3.10;;;;;;;30.01;33.58;101761.75;5055694;28;20412;-83
2022/09/05 11:56:20;;;;;;;12.18;3.20;;;;;;;30.17;33.17;101754.94;5037466;28;20028;-78
2022/09/05 11:59:07;;;;;;;16.50;3.42;;;;;;;30.60;33.67;101757.88;5055603;28;20085;-81
2022/09/05 12:01:58;;;;;;;10.85;3.17;;;;;;;30.90;32.10;101758.66;5056557;28;20025;-79
2022/09/05 12:04:45;;;;;;;12.52;3.00;;;;;;;31.28;31.43;101752.03;5037021;28;20112;-79
2022/09/05 12:07:22;;;;;;;13.60;3.28;;;;;;;31.66;31.23;101757.59;5054116;28;20045;-79
2022/09/05 12:10:15;;;;;;;7.78;3.35;;;;;;;31.63;31.09;101752.63;5055629;28;20029;-79
2022/09/05 12:12:50;;;;;;;14.70;3.88;;;;;;;31.56;31.02;101752.19;5055883;28;20534;-79
2022/09/05 12:15:26;;;;;;;10.10;3.35;;;;;;;31.87;30.88;101746.97;5036736;28;20435;-79
2022/09/05 12:18:10;;;;;;;;;;;;;;;32.21;30.37;101745.00;5054973;28;20040;-79